Time;durP1;ratioP1;P1;durP2;ratioP2;P2;SDS_P1;SDS_P2;PMS_P1;PMS_P2;Temp;Humidity;BMP_temperature;BMP_pressure;BME280_temperature;BME280_humidity;BME280_pressure;Samples;Min_cycle;Max_cycle;Signal;HPM_P1;HPM_P2
2021/08/20 00:01:46;;;;;;;6.55;5.07;;;;;;;18.61;65.46;100693.56;5051684;28;20396;-48
2021/08/20 00:04:11;;;;;;;5.68;4.85;;;;;;;18.61;65.69;100692.66;5033128;28;20040;-48
2021/08/20 00:06:36;;;;;;;5.15;4.65;;;;;;;18.62;65.51;100702.41;5051866;28;20020;-49
2021/08/20 00:09:02;;;;;;;5.25;4.75;;;;;;;18.61;65.53;100700.69;5049382;28;20021;-48
2021/08/20 00:11:27;;;;;;;5.05;4.55;;;;;;;18.60;65.56;100697.13;5051998;28;20060;-48
2021/08/20 00:13:52;;;;;;;5.72;5.15;;;;;;;18.59;65.54;100706.97;5051417;28;20053;-48
2021/08/20 00:16:18;;;;;;;6.32;5.50;;;;;;;18.61;65.74;100700.69;5051056;28;20558;-48
2021/08/20 00:18:43;;;;;;;5.65;4.70;;;;;;;18.60;65.56;100702.47;5051657;28;20036;-48
2021/08/20 00:21:12;;;;;;;6.25;5.65;;;;;;;18.61;65.52;100698.00;5051626;28;20056;-49
2021/08/20 00:23:37;;;;;;;6.53;5.90;;;;;;;18.59;65.70;100696.28;5050667;28;20021;-48
2021/08/20 00:26:03;;;;;;;5.97;5.38;;;;;;;18.59;65.61;100695.41;5050896;28;20033;-48
2021/08/20 00:28:29;;;;;;;5.80;5.28;;;;;;;18.58;65.69;100697.19;5051168;28;20024;-48
2021/08/20 00:30:54;;;;;;;6.18;5.25;;;;;;;18.59;65.77;100692.72;5051851;28;20036;-48
2021/08/20 00:33:19;;;;;;;6.93;5.88;;;;;;;18.57;65.59;100690.13;5050460;28;20190;-48
2021/08/20 00:35:45;;;;;;;6.30;5.65;;;;;;;18.58;65.78;100696.34;5050723;28;20100;-48
2021/08/20 00:38:10;;;;;;;5.65;5.05;;;;;;;18.57;65.61;100686.56;5035675;28;20028;-48
2021/08/20 00:40:36;;;;;;;6.00;5.40;;;;;;;18.57;65.69;100692.78;5050565;28;20290;-48
2021/08/20 00:43:02;;;;;;;5.88;5.07;;;;;;;18.58;65.71;100693.69;5052031;28;20055;-47
2021/08/20 00:45:27;;;;;;;6.47;5.80;;;;;;;18.56;65.68;100693.72;5050611;28;20060;-48
2021/08/20 00:47:53;;;;;;;6.80;5.25;;;;;;;18.56;65.62;100693.72;5049978;28;20028;-48
2021/08/20 00:50:18;;;;;;;6.50;5.68;;;;;;;18.54;65.62;100687.56;5048396;28;20079;-48
2021/08/20 00:52:43;;;;;;;6.30;5.70;;;;;;;18.58;65.71;100689.19;5050895;28;20492;-49
2021/08/20 00:55:10;;;;;;;6.30;5.70;;;;;;;18.57;65.86;100690.13;5050842;28;20096;-49
2021/08/20 00:57:35;;;;;;;5.93;5.43;;;;;;;18.57;65.78;100686.56;5034086;28;20025;-49
2021/08/20 01:00:01;;;;;;;6.00;5.20;;;;;;;18.57;65.74;100695.47;5031118;28;20108;-48
2021/08/20 01:02:26;;;;;;;6.20;5.60;;;;;;;18.56;65.78;100690.19;5049702;28;20021;-48
2021/08/20 01:04:52;;;;;;;6.78;6.03;;;;;;;18.54;65.91;100684.91;5050265;28;20028;-48
2021/08/20 01:07:17;;;;;;;5.78;5.20;;;;;;;18.56;65.81;100691.06;5051044;28;20511;-48
2021/08/20 01:09:45;;;;;;;5.90;5.30;;;;;;;18.55;65.92;100688.47;5035442;28;20111;-49
2021/08/20 01:12:11;;;;;;;6.13;5.25;;;;;;;18.55;65.90;100689.34;5050184;28;20451;-49
2021/08/20 01:14:36;;;;;;;7.05;5.70;;;;;;;18.55;65.62;100678.66;5050675;28;20049;-48
2021/08/20 01:17:04;;;;;;;6.43;5.82;;;;;;;18.54;65.81;100676.91;5032410;28;20020;-49
2021/08/20 01:19:37;;;;;;;7.15;6.20;;;;;;;18.54;65.87;100678.72;5050932;28;20025;-48
2021/08/20 01:22:03;;;;;;;6.95;5.63;;;;;;;18.53;65.74;100675.16;5050755;28;20045;-47
2021/08/20 01:24:29;;;;;;;6.03;5.43;;;;;;;18.52;65.67;100683.25;5049440;28;20028;-47
2021/08/20 01:26:55;;;;;;;6.70;6.10;;;;;;;18.52;65.89;100681.44;5032139;28;20024;-47
2021/08/20 01:29:21;;;;;;;6.65;5.57;;;;;;;18.54;65.64;100681.38;5050437;28;20500;-48
2021/08/20 01:31:47;;;;;;;6.55;5.05;;;;;;;18.52;65.83;100681.44;5050266;28;20052;-48
2021/08/20 01:34:13;;;;;;;5.47;4.95;;;;;;;18.53;65.93;100688.53;5046983;28;20432;-48
2021/08/20 01:36:39;;;;;;;7.25;5.55;;;;;;;18.52;65.89;100678.78;5034548;28;20033;-48
2021/08/20 01:39:05;;;;;;;6.80;5.65;;;;;;;18.52;66.04;100678.78;5034591;28;20017;-48
2021/08/20 01:41:31;;;;;;;7.55;6.03;;;;;;;18.51;66.14;100682.34;5049734;28;20025;-47
2021/08/20 01:43:58;;;;;;;7.53;6.20;;;;;;;18.52;66.04;100678.78;5049428;28;20836;-47
2021/08/20 01:46:24;;;;;;;7.30;6.00;;;;;;;18.52;65.76;100686.78;5047713;28;20025;-48
2021/08/20 01:48:54;;;;;;;7.90;5.40;;;;;;;18.52;66.05;100675.22;5047028;28;20029;-47
2021/08/20 01:51:26;;;;;;;6.33;5.73;;;;;;;18.52;65.88;100672.56;5050242;28;20025;-48
2021/08/20 01:53:56;;;;;;;6.50;5.78;;;;;;;18.51;66.08;100671.69;5049352;28;20263;-47
2021/08/20 01:56:25;;;;;;;6.60;5.60;;;;;;;18.50;65.87;100669.09;5049887;28;20025;-48
2021/08/20 01:58:53;;;;;;;8.15;6.32;;;;;;;18.50;65.93;100664.59;5050112;28;20028;-48
2021/08/20 02:01:18;;;;;;;7.47;6.75;;;;;;;18.49;66.01;100667.34;5046003;28;20082;-48
2021/08/20 02:03:43;;;;;;;8.20;5.68;;;;;;;18.51;65.89;100665.50;5048068;28;20029;-48
2021/08/20 02:06:10;;;;;;;9.15;6.85;;;;;;;18.50;66.00;100672.63;5050075;28;20025;-47
2021/08/20 02:08:36;;;;;;;6.90;6.15;;;;;;;18.51;66.08;100674.34;5048937;28;20097;-48
2021/08/20 02:11:01;;;;;;;6.55;5.95;;;;;;;18.50;66.05;100667.28;5049782;28;20539;-47
2021/08/20 02:13:27;;;;;;;6.28;5.53;;;;;;;18.50;65.90;100667.28;5031371;28;20056;-48
2021/08/20 02:15:52;;;;;;;5.85;5.22;;;;;;;18.49;65.75;100662.88;5046576;28;20067;-47
2021/08/20 02:18:18;;;;;;;6.95;6.18;;;;;;;18.49;65.99;100660.22;5049244;28;20021;-47
2021/08/20 02:20:43;;;;;;;6.90;5.47;;;;;;;18.49;65.90;100668.22;5047696;28;20388;-48
2021/08/20 02:23:09;;;;;;;5.97;5.47;;;;;;;18.50;65.97;100669.09;5048933;28;20111;-48
2021/08/20 02:25:34;;;;;;;7.15;5.88;;;;;;;18.49;65.85;100668.22;5048560;28;20017;-47
2021/08/20 02:28:00;;;;;;;6.75;5.88;;;;;;;18.49;66.05;100670.88;5049994;28;20036;-48
2021/08/20 02:30:25;;;;;;;6.82;5.93;;;;;;;18.50;66.17;100669.09;5049412;28;20036;-48
2021/08/20 02:32:51;;;;;;;6.00;5.40;;;;;;;18.49;66.18;100673.56;5047894;28;20407;-47
2021/08/20 02:35:16;;;;;;;7.32;5.80;;;;;;;18.49;65.96;100670.00;5048709;28;20032;-48
2021/08/20 02:37:42;;;;;;;7.70;5.60;;;;;;;18.48;66.24;100666.50;5027382;28;20037;-47
2021/08/20 02:40:07;;;;;;;6.03;5.40;;;;;;;18.47;66.33;100664.72;5033962;28;20040;-47
2021/08/20 02:42:33;;;;;;;5.88;5.20;;;;;;;18.48;66.14;100666.50;5049061;28;20017;-48
2021/08/20 02:44:58;;;;;;;6.78;5.47;;;;;;;18.48;66.16;100662.94;5049736;28;20025;-48
2021/08/20 02:47:23;;;;;;;7.15;5.90;;;;;;;18.48;66.19;100662.94;5049303;28;20052;-48
2021/08/20 02:49:49;;;;;;;8.02;5.68;;;;;;;18.48;66.20;100658.47;5046605;28;20086;-48
2021/08/20 02:52:14;;;;;;;5.90;5.30;;;;;;;18.47;66.38;100667.41;5049222;28;20013;-48
2021/08/20 02:54:39;;;;;;;7.32;5.50;;;;;;;18.46;66.30;100666.56;5049215;28;20021;-48
2021/08/20 02:57:05;;;;;;;7.50;5.82;;;;;;;18.46;66.48;100668.34;5049118;28;20017;-47
2021/08/20 02:59:30;;;;;;;7.20;6.50;;;;;;;18.48;66.38;100665.63;5049293;28;20038;-48
2021/08/20 03:01:55;;;;;;;6.53;5.75;;;;;;;18.46;66.22;100674.56;5049718;28;20111;-48
2021/08/20 03:04:20;;;;;;;6.40;5.53;;;;;;;18.46;66.38;100668.34;5048229;28;20029;-48
2021/08/20 03:06:46;;;;;;;6.00;5.28;;;;;;;18.45;66.32;100669.28;5049390;28;20034;-47
2021/08/20 03:09:11;;;;;;;8.55;6.00;;;;;;;18.46;66.49;100671.00;5048851;28;20021;-48
2021/08/20 03:11:37;;;;;;;6.25;5.68;;;;;;;18.44;66.42;100663.06;5049287;28;20111;-48
2021/08/20 03:14:03;;;;;;;6.35;5.25;;;;;;;18.47;66.41;100670.06;5051120;28;20024;-48
2021/08/20 03:16:28;;;;;;;6.50;5.90;;;;;;;18.46;66.46;100668.34;5052621;28;20534;-48
2021/08/20 03:18:53;;;;;;;8.77;6.25;;;;;;;18.45;66.39;100661.28;5050184;28;20033;-48
2021/08/20 03:21:19;;;;;;;7.72;6.72;;;;;;;18.46;66.44;100663.00;5018814;28;20017;-48
2021/08/20 03:23:44;;;;;;;7.72;6.70;;;;;;;18.45;66.50;100670.13;5033138;28;20487;-47
2021/08/20 03:26:09;;;;;;;5.95;5.05;;;;;;;18.46;66.66;100679.03;5052404;28;20480;-47
2021/08/20 03:28:35;;;;;;;6.43;5.63;;;;;;;18.44;66.67;100668.41;5052549;28;20025;-48
2021/08/20 03:31:00;;;;;;;7.13;5.95;;;;;;;18.46;66.56;100684.38;5052562;28;20091;-48
2021/08/20 03:33:25;;;;;;;6.22;5.57;;;;;;;18.44;66.83;100683.59;5052602;28;20047;-47
2021/08/20 03:35:50;;;;;;;8.43;6.15;;;;;;;18.44;66.87;100680.91;5052200;28;20032;-48
2021/08/20 03:38:16;;;;;;;7.28;6.10;;;;;;;18.44;66.72;100683.59;5052784;28;20473;-48
2021/08/20 03:40:41;;;;;;;6.07;5.47;;;;;;;18.44;66.71;100689.78;5052750;28;20031;-48
2021/08/20 03:43:06;;;;;;;7.05;6.35;;;;;;;18.43;66.79;100685.38;5052755;28;20477;-48
2021/08/20 03:45:32;;;;;;;6.85;6.13;;;;;;;18.43;66.72;100681.81;5050640;28;20036;-48
2021/08/20 03:47:57;;;;;;;7.60;6.13;;;;;;;18.43;66.47;100681.81;5033157;28;20496;-48
2021/08/20 03:50:22;;;;;;;6.95;6.03;;;;;;;18.44;66.68;100675.56;5052367;28;20412;-48
2021/08/20 03:52:48;;;;;;;6.60;5.78;;;;;;;18.44;66.58;100672.91;5052475;28;20094;-47
2021/08/20 03:55:13;;;;;;;8.13;6.10;;;;;;;18.44;66.46;100670.22;5051640;28;20029;-48
2021/08/20 03:57:38;;;;;;;7.45;6.68;;;;;;;18.43;66.34;100673.81;5052036;28;20530;-48
2021/08/20 04:00:07;;;;;;;6.15;5.55;;;;;;;18.43;66.60;100679.16;5052857;28;20549;-47
2021/08/20 04:02:33;;;;;;;8.32;6.40;;;;;;;18.44;66.73;100680.91;5031742;28;20021;-48
2021/08/20 04:04:58;;;;;;;7.03;6.35;;;;;;;18.43;66.56;100680.03;5049880;28;20040;-48
2021/08/20 04:07:23;;;;;;;7.25;6.53;;;;;;;18.43;66.64;100673.81;5049264;28;20033;-48
2021/08/20 04:09:49;;;;;;;7.85;6.55;;;;;;;18.43;66.63;100684.50;5052249;28;20032;-48
2021/08/20 04:12:15;;;;;;;7.32;6.18;;;;;;;18.42;66.67;100694.31;5049621;28;20028;-47
2021/08/20 04:14:40;;;;;;;7.53;6.35;;;;;;;18.44;66.67;100686.25;5051596;28;20432;-47
2021/08/20 04:17:06;;;;;;;7.75;6.88;;;;;;;18.42;66.73;100702.34;5045127;28;20032;-47
2021/08/20 04:19:31;;;;;;;8.90;6.82;;;;;;;18.41;66.87;100697.06;5052123;28;20032;-47
2021/08/20 04:21:56;;;;;;;8.15;6.82;;;;;;;18.42;66.84;100699.66;5033681;28;20132;-48
2021/08/20 04:24:22;;;;;;;7.97;7.13;;;;;;;18.42;66.82;100707.69;5050868;28;20033;-47
2021/08/20 04:26:47;;;;;;;9.88;7.68;;;;;;;18.42;66.90;100710.34;5049380;28;20036;-48
2021/08/20 04:29:12;;;;;;;7.50;6.63;;;;;;;18.42;66.74;100705.00;5049044;28;20398;-48
2021/08/20 04:31:38;;;;;;;7.68;6.47;;;;;;;18.41;66.67;100703.25;5050563;28;20036;-48
2021/08/20 04:34:03;;;;;;;7.03;6.05;;;;;;;18.42;66.67;100709.47;5049846;28;20021;-48
2021/08/20 04:36:28;;;;;;;6.68;5.78;;;;;;;18.43;66.63;100713.88;5049025;28;20143;-48
2021/08/20 04:38:54;;;;;;;8.02;6.25;;;;;;;18.43;66.79;100708.53;5052039;28;20025;-48
2021/08/20 04:41:19;;;;;;;7.88;6.00;;;;;;;18.42;66.66;100709.47;5051789;28;20200;-48
2021/08/20 04:43:44;;;;;;;7.60;6.20;;;;;;;18.41;66.38;100702.41;5033201;28;20057;-48
2021/08/20 04:46:10;;;;;;;6.38;5.75;;;;;;;18.42;66.55;100699.66;5050655;28;20029;-48
2021/08/20 04:48:35;;;;;;;7.28;6.50;;;;;;;18.42;66.44;100704.13;5051439;28;20020;-48
2021/08/20 04:51:00;;;;;;;7.05;6.30;;;;;;;18.43;66.39;100704.06;5048529;28;20451;-48
2021/08/20 04:53:35;;;;;;;6.85;5.90;;;;;;;18.42;66.47;100704.13;5033844;28;20021;-48
2021/08/20 04:56:00;;;;;;;8.15;6.50;;;;;;;18.42;66.75;100688.97;5030562;28;20102;-48
2021/08/20 04:58:25;;;;;;;7.47;6.18;;;;;;;18.42;66.56;100693.44;5050739;28;20480;-49
2021/08/20 05:00:51;;;;;;;7.70;6.47;;;;;;;18.41;66.66;100697.06;5050636;28;20021;-49
2021/08/20 05:03:16;;;;;;;6.88;6.20;;;;;;;18.43;66.49;100700.50;5036504;28;20060;-48
2021/08/20 05:05:43;;;;;;;7.90;6.70;;;;;;;18.41;66.56;100703.25;5054268;28;20017;-48
2021/08/20 05:08:08;;;;;;;7.97;6.53;;;;;;;18.41;66.66;100713.06;5032735;28;20560;-48
2021/08/20 05:10:33;;;;;;;7.38;6.13;;;;;;;18.41;66.75;100713.06;5015969;28;20119;-48
2021/08/20 05:12:59;;;;;;;7.65;6.82;;;;;;;18.42;66.85;100715.69;5050656;28;20116;-48
2021/08/20 05:15:27;;;;;;;7.50;6.45;;;;;;;18.39;66.86;100710.47;5031980;28;20025;-48
2021/08/20 05:17:53;;;;;;;6.82;6.15;;;;;;;18.41;66.87;100721.09;5047323;28;20477;-48
2021/08/20 05:20:18;;;;;;;7.00;5.95;;;;;;;18.41;66.63;100718.41;5051119;28;20116;-49
2021/08/20 05:22:46;;;;;;;5.82;5.25;;;;;;;18.42;66.92;100722.81;5051119;28;20024;-48
2021/08/20 05:25:27;;;;;;;6.22;5.55;;;;;;;18.41;66.61;100729.09;5047760;28;20132;-48
2021/08/20 05:27:53;;;;;;;6.25;5.65;;;;;;;18.40;66.95;100724.66;5051159;28;20068;-48
2021/08/20 05:30:19;;;;;;;6.93;6.13;;;;;;;18.36;66.75;100718.59;5031832;28;20558;-47
2021/08/20 05:32:44;;;;;;;6.55;5.78;;;;;;;18.34;66.87;100717.78;5031857;28;20123;-48
2021/08/20 05:35:11;;;;;;;7.13;6.35;;;;;;;18.34;67.00;100715.09;5048930;28;20511;-48
2021/08/20 05:37:36;;;;;;;6.15;5.55;;;;;;;18.33;66.71;100718.72;5014381;28;20393;-48
2021/08/20 05:40:03;;;;;;;6.57;5.88;;;;;;;18.34;66.65;100729.34;5031651;28;20033;-48
2021/08/20 05:42:28;;;;;;;7.43;5.55;;;;;;;18.34;66.84;100729.34;5068927;22;20021;-48
2021/08/20 05:44:54;;;;;;;6.85;5.63;;;;;;;18.33;66.95;100724.94;5043691;28;20413;-48
2021/08/20 05:47:19;;;;;;;7.32;6.03;;;;;;;18.34;66.74;100721.31;5049020;28;20389;-48
2021/08/20 05:49:44;;;;;;;6.60;5.72;;;;;;;18.38;66.61;100715.88;5042753;28;20029;-48
2021/08/20 05:52:10;;;;;;;6.93;5.85;;;;;;;18.37;66.60;100714.13;5024912;28;20022;-48
2021/08/20 05:54:35;;;;;;;6.97;6.28;;;;;;;18.37;66.84;100719.47;5030886;28;20032;-48
2021/08/20 05:57:00;;;;;;;7.88;5.80;;;;;;;18.33;66.81;100724.94;5016458;28;20017;-48
2021/08/20 05:59:26;;;;;;;6.20;5.60;;;;;;;18.37;66.63;100727.50;5037689;28;20028;-48
2021/08/20 06:01:51;;;;;;;7.28;6.53;;;;;;;18.33;66.81;100719.59;5017823;28;20028;-48
2021/08/20 06:04:17;;;;;;;8.75;6.95;;;;;;;18.38;66.71;100723.88;5003474;28;20026;-48
2021/08/20 06:06:42;;;;;;;7.57;6.78;;;;;;;18.38;66.62;100721.22;5019021;28;20427;-48
2021/08/20 06:09:07;;;;;;;7.43;5.95;;;;;;;18.33;66.78;100727.59;5034547;28;20044;-48
2021/08/20 06:11:33;;;;;;;7.47;6.65;;;;;;;18.36;66.78;100736.41;5031664;28;20036;-48
2021/08/20 06:13:59;;;;;;;6.22;5.63;;;;;;;18.36;66.84;100736.41;5036359;28;20064;-48
2021/08/20 06:16:24;;;;;;;8.05;6.20;;;;;;;18.33;66.83;100730.28;5032345;28;20139;-48
2021/08/20 06:18:49;;;;;;;6.32;5.72;;;;;;;18.35;66.89;100740.91;5036756;28;20033;-48
2021/08/20 06:21:15;;;;;;;8.35;6.43;;;;;;;18.33;67.14;100735.63;5021546;28;20033;-48
2021/08/20 06:23:40;;;;;;;7.45;6.65;;;;;;;18.33;67.06;100738.28;5032793;28;20532;-49
2021/08/20 06:26:05;;;;;;;6.47;5.88;;;;;;;18.36;66.83;100737.28;5038147;28;20473;-48
2021/08/20 06:28:31;;;;;;;7.88;6.57;;;;;;;18.33;67.01;100743.63;5016567;28;20128;-48
2021/08/20 06:31:02;;;;;;;7.88;6.00;;;;;;;18.33;67.00;100743.63;5033446;28;20025;-48
2021/08/20 06:33:27;;;;;;;;;;;;;;;18.34;67.23;100750.69;5032602;28;20021;-48
2021/08/20 06:35:52;;;;;;;6.73;5.73;;;;;;;18.37;66.77;100748.84;5032316;28;19916;-48
2021/08/20 06:38:17;;;;;;;7.10;6.20;;;;;;;18.32;67.29;100746.34;5035143;28;20302;-49
2021/08/20 06:40:43;;;;;;;7.00;5.78;;;;;;;18.32;67.07;100749.91;5036504;28;20037;-48
2021/08/20 06:43:08;;;;;;;6.65;5.80;;;;;;;18.31;67.14;100748.16;5014441;28;20807;-49
2021/08/20 06:45:33;;;;;;;6.82;6.13;;;;;;;18.34;67.05;100758.69;5029205;28;20481;-48
2021/08/20 06:47:59;;;;;;;6.32;5.72;;;;;;;18.36;67.09;100753.31;5031641;28;20033;-49
2021/08/20 06:50:24;;;;;;;7.00;6.30;;;;;;;18.33;67.20;100756.97;5037292;28;20276;-49
2021/08/20 06:52:49;;;;;;;8.05;6.18;;;;;;;18.33;67.06;100753.41;5039702;28;20009;-49
2021/08/20 06:55:14;;;;;;;7.07;6.35;;;;;;;18.32;67.23;100755.25;5039536;28;20090;-49
2021/08/20 06:57:40;;;;;;;7.78;6.53;;;;;;;18.34;67.12;100747.16;5036982;28;20029;-49
2021/08/20 07:00:06;;;;;;;7.15;6.45;;;;;;;18.34;67.25;100752.47;5038995;28;20026;-49
2021/08/20 07:02:31;;;;;;;7.10;6.38;;;;;;;18.34;67.26;100750.69;5035573;28;20072;-49
2021/08/20 07:04:56;;;;;;;6.57;5.88;;;;;;;18.36;67.55;100753.31;5006603;28;20396;-49
2021/08/20 07:07:21;;;;;;;7.13;5.93;;;;;;;18.34;67.71;100750.69;5039753;28;20452;-49
2021/08/20 07:09:47;;;;;;;6.80;5.65;;;;;;;18.36;67.48;100752.41;5036667;28;20041;-49
2021/08/20 07:12:12;;;;;;;6.95;6.25;;;;;;;18.36;67.65;100763.97;5040908;28;20377;-49
2021/08/20 07:14:37;;;;;;;8.50;6.65;;;;;;;18.37;67.50;100759.53;5035575;28;20033;-49
2021/08/20 07:17:03;;;;;;;7.85;6.40;;;;;;;18.36;67.90;100753.31;5035903;28;20029;-49
2021/08/20 07:19:28;;;;;;;7.72;5.85;;;;;;;18.36;67.95;100760.44;5035610;28;20075;-49
2021/08/20 07:21:53;;;;;;;7.90;6.90;;;;;;;18.37;67.88;100765.72;5035865;28;20033;-49
2021/08/20 07:24:19;;;;;;;6.10;5.50;;;;;;;18.34;68.06;100772.06;5036685;28;20032;-48
2021/08/20 07:26:44;;;;;;;6.85;5.60;;;;;;;18.36;67.75;100773.78;5037567;28;20029;-49
2021/08/20 07:29:09;;;;;;;6.65;5.78;;;;;;;18.35;67.94;100767.59;5034632;28;20106;-49
2021/08/20 07:31:35;;;;;;;6.72;5.70;;;;;;;18.37;67.41;100768.38;5034193;28;20473;-49
2021/08/20 07:34:01;;;;;;;7.05;6.35;;;;;;;18.34;67.73;100768.50;5035996;28;20492;-49
2021/08/20 07:36:26;;;;;;;6.13;5.40;;;;;;;18.36;67.17;100768.44;5034798;28;20401;-49
2021/08/20 07:38:51;;;;;;;7.43;6.13;;;;;;;18.35;67.47;100772.94;5033791;28;20029;-49
2021/08/20 07:41:17;;;;;;;8.73;6.10;;;;;;;18.35;67.54;100778.28;5039342;28;20031;-48
2021/08/20 07:43:42;;;;;;;5.95;5.10;;;;;;;18.35;67.27;100786.28;5035714;28;20029;-48
2021/08/20 07:46:07;;;;;;;6.13;5.18;;;;;;;18.34;67.63;100795.19;5037078;28;20033;-48
2021/08/20 07:48:33;;;;;;;6.25;5.28;;;;;;;18.34;67.72;100795.19;5037334;28;20072;-49
2021/08/20 07:50:58;;;;;;;5.90;5.07;;;;;;;18.34;67.36;100789.84;5032681;28;20056;-49
2021/08/20 07:53:24;;;;;;;5.93;5.13;;;;;;;18.34;67.02;100790.75;5029419;28;20021;-49
2021/08/20 07:55:50;;;;;;;6.00;5.50;;;;;;;18.33;67.40;100789.00;5034449;28;20017;-49
2021/08/20 07:58:15;;;;;;;12.07;5.28;;;;;;;18.33;67.26;100788.13;5021069;28;20025;-49
2021/08/20 08:00:41;;;;;;;6.00;5.32;;;;;;;18.31;67.58;100785.53;5035824;28;20020;-49
2021/08/20 08:03:06;;;;;;;6.22;5.63;;;;;;;18.31;67.24;100782.84;5034521;28;20056;-49
2021/08/20 08:05:32;;;;;;;6.18;5.63;;;;;;;18.33;67.43;100791.69;5033702;28;20064;-48
2021/08/20 08:07:58;;;;;;;6.10;5.30;;;;;;;18.34;67.60;100788.06;5035162;28;20061;-48
2021/08/20 08:10:23;;;;;;;6.72;5.78;;;;;;;18.34;67.77;100787.19;5031356;28;20032;-47
2021/08/20 08:12:50;;;;;;;6.22;5.47;;;;;;;18.32;67.72;100789.94;5030815;28;20465;-48
2021/08/20 08:15:15;;;;;;;6.95;6.25;;;;;;;18.31;67.70;100793.53;5016833;28;20115;-48
2021/08/20 08:17:40;;;;;;;6.10;5.50;;;;;;;18.32;67.65;100795.28;5033137;28;20065;-48
2021/08/20 08:20:08;;;;;;;6.93;5.88;;;;;;;18.34;67.43;100801.41;5037838;28;20552;-47
2021/08/20 08:22:34;;;;;;;7.85;6.38;;;;;;;18.34;67.73;100809.44;5033413;28;20477;-47
2021/08/20 08:24:59;;;;;;;6.20;5.53;;;;;;;18.36;67.45;100811.16;5031053;28;20080;-48
2021/08/20 08:27:24;;;;;;;6.88;6.28;;;;;;;18.33;67.99;100817.50;5035396;28;20021;-48
2021/08/20 08:29:50;;;;;;;7.32;6.18;;;;;;;18.32;67.78;100805.97;5014410;28;20021;-47
2021/08/20 08:32:15;;;;;;;6.10;5.55;;;;;;;18.35;67.72;100804.97;5031163;28;20049;-48
2021/08/20 08:34:40;;;;;;;5.72;5.13;;;;;;;18.32;67.73;100803.31;5031263;28;20100;-48
2021/08/20 08:37:06;;;;;;;5.60;5.10;;;;;;;18.34;67.44;100809.44;5014098;28;20087;-48
2021/08/20 08:39:32;;;;;;;6.03;5.30;;;;;;;18.37;67.39;100807.59;5033450;28;20499;-48
2021/08/20 08:41:57;;;;;;;6.45;5.65;;;;;;;18.37;67.41;100807.59;5029596;28;20041;-48
2021/08/20 08:44:23;;;;;;;6.40;5.47;;;;;;;18.38;67.46;100807.53;5035312;28;20381;-48
2021/08/20 08:46:49;;;;;;;6.00;5.47;;;;;;;18.36;67.31;100813.84;5029590;28;20091;-47
2021/08/20 08:49:19;;;;;;;6.30;5.70;;;;;;;18.36;67.28;100813.84;5031180;28;20095;-48
2021/08/20 08:51:44;;;;;;;5.67;5.07;;;;;;;18.37;67.57;100813.78;5030556;28;20021;-48
2021/08/20 08:54:13;;;;;;;5.60;5.10;;;;;;;18.38;67.03;100809.31;5033412;28;20024;-48
2021/08/20 08:56:46;;;;;;;6.10;5.50;;;;;;;18.40;67.06;100810.09;5036377;28;20040;-48
2021/08/20 08:59:12;;;;;;;5.70;5.07;;;;;;;18.38;66.92;100801.31;5029221;28;20111;-48
2021/08/20 09:01:38;;;;;;;5.75;5.25;;;;;;;18.38;67.06;100804.84;5030094;28;20029;-47
2021/08/20 09:04:07;;;;;;;6.90;5.18;;;;;;;18.39;66.99;100801.25;5032520;28;20395;-48
2021/08/20 09:06:43;;;;;;;6.72;5.85;;;;;;;18.41;66.78;100810.03;5030963;28;20021;-48
2021/08/20 09:09:14;;;;;;;5.53;4.93;;;;;;;18.38;66.95;100795.97;5015218;28;20515;-47
2021/08/20 09:11:40;;;;;;;6.63;5.30;;;;;;;18.42;66.75;100802.91;5013250;28;20497;-48
2021/08/20 09:14:06;;;;;;;6.18;4.95;;;;;;;18.41;66.90;100798.53;5015722;28;20013;-47
2021/08/20 09:16:42;;;;;;;7.05;6.35;;;;;;;18.41;67.06;100803.84;5036467;28;20055;-48
2021/08/20 09:19:16;;;;;;;5.90;5.32;;;;;;;18.41;66.85;100802.03;5033356;28;20072;-49
2021/08/20 09:21:46;;;;;;;5.50;5.00;;;;;;;18.44;66.70;100803.75;5037202;28;20021;-49
2021/08/20 09:24:35;;;;;;;6.53;5.80;;;;;;;18.43;66.89;100796.63;5031746;28;20071;-49
2021/08/20 09:27:21;;;;;;;5.90;4.97;;;;;;;18.43;66.80;100796.63;5036287;28;20033;-49
2021/08/20 09:30:07;;;;;;;5.50;4.88;;;;;;;18.42;66.66;100795.78;5031779;28;20513;-49
2021/08/20 09:32:33;;;;;;;6.88;6.18;;;;;;;18.44;66.78;100795.72;5016039;28;20076;-49
2021/08/20 09:34:59;;;;;;;5.97;5.32;;;;;;;18.43;66.80;100786.84;5029300;28;20056;-49
2021/08/20 09:37:29;;;;;;;5.70;5.22;;;;;;;18.46;66.36;100794.72;5035574;28;20626;-49
2021/08/20 09:40:06;;;;;;;6.80;5.70;;;;;;;18.47;66.69;100800.91;5034032;28;20024;-49
2021/08/20 09:42:32;;;;;;;7.35;6.05;;;;;;;18.47;66.68;100790.25;5034939;28;20116;-49
2021/08/20 09:45:14;;;;;;;6.40;5.72;;;;;;;18.46;66.70;100793.84;5030918;28;20545;-49
2021/08/20 09:47:51;;;;;;;6.93;6.22;;;;;;;18.48;66.66;100796.47;5035999;28;20102;-49
2021/08/20 09:50:19;;;;;;;6.40;5.80;;;;;;;18.46;66.46;100784.06;5015404;28;20013;-49
2021/08/20 09:52:45;;;;;;;6.63;5.95;;;;;;;18.49;66.58;100783.06;5036572;28;20025;-49
2021/08/20 09:55:10;;;;;;;6.93;5.95;;;;;;;18.49;66.75;100780.38;5013810;28;20021;-49
2021/08/20 09:57:38;;;;;;;6.57;5.70;;;;;;;18.50;66.50;100775.91;5016284;28;20044;-49
2021/08/20 10:00:07;;;;;;;6.10;5.60;;;;;;;18.51;66.48;100775.81;5034392;28;20040;-49
2021/08/20 10:02:35;;;;;;;7.82;5.88;;;;;;;18.50;66.55;100771.44;5033140;28;20068;-49
2021/08/20 10:05:00;;;;;;;6.13;5.53;;;;;;;18.51;66.59;100767.81;5010324;28;20025;-49
2021/08/20 10:07:26;;;;;;;5.82;5.22;;;;;;;18.53;66.29;100776.66;5035747;28;20457;-49
2021/08/20 10:09:53;;;;;;;6.85;6.25;;;;;;;18.54;66.49;100780.19;5038306;28;20112;-49
2021/08/20 10:12:19;;;;;;;6.18;5.57;;;;;;;18.51;66.29;100783.84;5034331;28;20385;-49
2021/08/20 10:14:45;;;;;;;6.03;5.53;;;;;;;18.53;66.22;100770.44;5016900;28;20091;-49
2021/08/20 10:17:11;;;;;;;6.47;5.80;;;;;;;18.54;66.57;100781.06;5019544;28;20017;-49
2021/08/20 10:19:37;;;;;;;6.22;5.65;;;;;;;18.52;66.60;100785.59;5032155;28;20044;-49
2021/08/20 10:22:04;;;;;;;5.88;5.25;;;;;;;18.54;66.19;100781.06;5018275;28;20034;-49
2021/08/20 10:24:30;;;;;;;6.47;5.78;;;;;;;18.53;66.24;100775.78;5015165;28;20469;-49
2021/08/20 10:26:56;;;;;;;6.45;5.85;;;;;;;18.53;66.38;100782.00;5017655;28;20037;-49
2021/08/20 10:29:26;;;;;;;7.00;6.30;;;;;;;18.54;66.45;100781.06;5031377;28;20489;-49
2021/08/20 10:31:52;;;;;;;6.53;5.90;;;;;;;18.54;66.25;100786.38;5010730;28;20017;-49
2021/08/20 10:34:29;;;;;;;6.70;6.03;;;;;;;18.53;66.34;100781.09;5015219;28;20028;-49
2021/08/20 10:37:13;;;;;;;7.63;5.45;;;;;;;18.53;66.20;100790.00;5039869;28;20435;-49
2021/08/20 10:39:47;;;;;;;7.22;6.28;;;;;;;18.54;66.06;100783.72;5030245;28;20044;-49
2021/08/20 10:42:14;;;;;;;7.20;6.50;;;;;;;18.54;66.36;100796.22;5014228;28;20041;-49
2021/08/20 10:44:44;;;;;;;7.93;6.47;;;;;;;18.54;65.91;100799.75;5031649;28;20080;-49
2021/08/20 10:47:24;;;;;;;6.53;5.93;;;;;;;18.54;65.83;100797.06;5031248;28;20412;-49
2021/08/20 10:49:50;;;;;;;6.43;5.80;;;;;;;18.54;65.99;100802.41;5036763;28;20018;-49
2021/08/20 10:52:27;;;;;;;6.63;6.03;;;;;;;18.54;65.83;100799.75;5016371;28;20021;-48
2021/08/20 10:54:52;;;;;;;6.63;6.03;;;;;;;18.54;65.79;100799.75;5032774;28;20022;-49
2021/08/20 10:57:39;;;;;;;6.73;6.13;;;;;;;18.57;65.68;100801.41;5029845;28;20266;-49
2021/08/20 11:00:09;;;;;;;6.93;6.00;;;;;;;18.55;65.71;100796.16;5028898;28;20037;-49
2021/08/20 11:02:41;;;;;;;6.10;5.47;;;;;;;18.56;65.79;100792.56;5012835;28;20119;-49
2021/08/20 11:05:08;;;;;;;5.88;5.32;;;;;;;18.56;65.59;100797.91;5030647;28;20025;-49
2021/08/20 11:07:43;;;;;;;6.53;5.88;;;;;;;18.57;65.65;100804.09;4996629;28;20031;-49
2021/08/20 11:10:08;;;;;;;7.85;6.75;;;;;;;18.55;65.70;100796.16;5033365;28;20029;-48
2021/08/20 11:12:51;;;;;;;6.63;6.00;;;;;;;18.55;65.52;100801.50;5016892;28;20021;-48
2021/08/20 11:15:25;;;;;;;5.78;5.28;;;;;;;18.57;65.59;100804.97;5030572;28;20267;-48
2021/08/20 11:17:53;;;;;;;7.15;6.50;;;;;;;18.57;65.30;100804.97;5010746;28;20485;-49
2021/08/20 11:20:21;;;;;;;6.65;6.05;;;;;;;18.61;65.32;100808.41;5031195;28;20048;-49
2021/08/20 11:23:10;;;;;;;7.20;6.45;;;;;;;18.59;65.50;100813.81;5033929;28;20025;-49